createdAt,value
2022-09-26T00:00:33.443Z,992.46
2022-09-26T00:01:33.498Z,992.43
2022-09-26T00:02:33.474Z,992.48
2022-09-26T00:03:33.417Z,992.42
2022-09-26T00:04:33.411Z,992.44
2022-09-26T00:05:33.399Z,992.45
2022-09-26T00:06:33.394Z,992.45
2022-09-26T00:07:33.418Z,992.43
2022-09-26T00:08:33.381Z,992.43
2022-09-26T00:09:33.370Z,992.47
2022-09-26T00:10:33.365Z,992.44
2022-09-26T00:11:33.354Z,992.41
2022-09-26T00:12:33.374Z,992.39
2022-09-26T00:13:33.344Z,992.41
2022-09-26T00:14:33.339Z,992.42
2022-09-26T00:15:33.308Z,992.38
2022-09-26T00:16:33.370Z,992.43
2022-09-26T00:17:33.333Z,992.43
2022-09-26T00:18:33.291Z,992.36
2022-09-26T00:19:33.284Z,992.33
2022-09-26T00:20:33.277Z,992.37
2022-09-26T00:21:33.270Z,992.38
2022-09-26T00:22:33.289Z,992.36
2022-09-26T00:23:33.255Z,992.34
2022-09-26T00:24:33.249Z,992.26
2022-09-26T00:25:33.235Z,992.24
2022-09-26T00:26:33.229Z,992.19
2022-09-26T00:27:33.246Z,992.28
2022-09-26T00:28:33.219Z,992.22
2022-09-26T00:29:33.212Z,992.22
2022-09-26T00:30:33.216Z,992.22
2022-09-26T00:31:33.192Z,992.28
2022-09-26T00:32:33.216Z,992.22
2022-09-26T00:33:33.174Z,992.24
2022-09-26T00:34:33.166Z,992.25
2022-09-26T00:35:33.156Z,992.29
2022-09-26T00:36:38.042Z,992.19
2022-09-26T00:37:35.170Z,992.22
2022-09-26T00:38:33.130Z,992.22
2022-09-26T00:39:33.124Z,992.17
2022-09-26T00:40:33.149Z,992.22
2022-09-26T00:41:33.102Z,992.13
2022-09-26T00:42:33.137Z,992.17
2022-09-26T00:43:33.087Z,992.22
2022-09-26T00:44:33.081Z,992.13
2022-09-26T00:45:33.110Z,992.16
2022-09-26T00:46:33.143Z,992.14
2022-09-26T00:47:33.080Z,992.05
2022-09-26T00:48:34.044Z,992.14
2022-09-26T00:49:33.046Z,992.08
2022-09-26T00:50:33.030Z,992.05
2022-09-26T00:51:33.022Z,992.07
2022-09-26T00:52:33.037Z,992.08
2022-09-26T00:53:33.013Z,992.10
2022-09-26T00:54:33.027Z,992.10
2022-09-26T00:55:32.990Z,992.08
2022-09-26T00:56:32.985Z,992.10
2022-09-26T00:57:33.013Z,992.10
2022-09-26T00:58:32.970Z,992.10
2022-09-26T00:59:32.955Z,992.07
2022-09-26T01:00:34.154Z,992.01
2022-09-26T01:01:33.004Z,992.02
2022-09-26T01:02:33.074Z,992.03
2022-09-26T01:03:32.934Z,991.96
2022-09-26T01:04:32.947Z,992.00
2022-09-26T01:05:32.903Z,992.00
2022-09-26T01:06:32.905Z,991.93
2022-09-26T01:07:32.891Z,991.94
2022-09-26T01:08:32.915Z,991.95
2022-09-26T01:09:32.874Z,991.96
2022-09-26T01:10:32.866Z,991.93
2022-09-26T01:11:32.859Z,991.95
2022-09-26T01:12:32.864Z,991.93
2022-09-26T01:13:32.886Z,991.91
2022-09-26T01:14:32.828Z,991.93
2022-09-26T01:15:32.829Z,991.92
2022-09-26T01:16:32.838Z,991.95
2022-09-26T01:17:32.808Z,991.91
2022-09-26T01:18:32.812Z,991.93
2022-09-26T01:19:33.785Z,991.89
2022-09-26T01:20:32.776Z,991.81
2022-09-26T01:21:32.777Z,991.80
2022-09-26T01:22:32.789Z,991.82
2022-09-26T01:24:06.520Z,991.81
2022-09-26T01:24:32.742Z,991.77
2022-09-26T01:25:32.739Z,991.81
2022-09-26T01:26:32.729Z,991.79
2022-09-26T01:27:32.758Z,991.77
2022-09-26T01:28:32.720Z,991.76
2022-09-26T01:29:32.713Z,991.76
2022-09-26T01:30:32.811Z,991.75
2022-09-26T01:31:32.691Z,991.78
2022-09-26T01:32:32.710Z,991.73
2022-09-26T01:33:32.672Z,991.76
2022-09-26T01:34:32.671Z,991.70
2022-09-26T01:35:32.664Z,991.73
2022-09-26T01:36:32.649Z,991.73
2022-09-26T01:37:32.669Z,991.65
2022-09-26T01:38:32.632Z,991.60
2022-09-26T01:39:32.627Z,991.66
2022-09-26T01:40:32.644Z,991.69
2022-09-26T01:41:32.609Z,991.71
2022-09-26T01:42:32.629Z,991.69
2022-09-26T01:43:32.589Z,991.69
2022-09-26T01:44:32.581Z,991.65
2022-09-26T01:45:32.614Z,991.70
2022-09-26T01:46:32.565Z,991.67
2022-09-26T01:47:32.595Z,991.64
2022-09-26T01:48:32.551Z,991.70
2022-09-26T01:49:32.540Z,991.61
2022-09-26T01:50:32.534Z,991.56
2022-09-26T01:51:32.520Z,991.67
2022-09-26T01:52:32.558Z,991.66
2022-09-26T01:53:32.511Z,991.61
2022-09-26T01:54:32.495Z,991.57
2022-09-26T01:55:32.496Z,991.58
2022-09-26T01:56:32.477Z,991.60
2022-09-26T01:57:32.472Z,991.58
2022-09-26T01:58:32.474Z,991.57
2022-09-26T01:59:33.453Z,991.56
2022-09-26T02:00:32.457Z,991.55
2022-09-26T02:01:32.518Z,991.54
2022-09-26T02:02:32.517Z,991.49
2022-09-26T02:03:32.456Z,991.54
2022-09-26T02:04:32.416Z,991.51
2022-09-26T02:05:32.427Z,991.48
2022-09-26T02:06:32.401Z,991.48
2022-09-26T02:07:32.394Z,991.46
2022-09-26T02:08:32.408Z,991.41
2022-09-26T02:09:32.379Z,991.40
2022-09-26T02:10:32.361Z,991.43
2022-09-26T02:11:32.353Z,991.45
2022-09-26T02:12:32.345Z,991.41
2022-09-26T02:13:32.367Z,991.37
2022-09-26T02:14:32.343Z,991.40
2022-09-26T02:15:32.323Z,991.44
2022-09-26T02:16:32.356Z,991.40
2022-09-26T02:17:32.338Z,991.40
2022-09-26T02:18:32.300Z,991.37
2022-09-26T02:19:32.293Z,991.35
2022-09-26T02:20:32.285Z,991.33
2022-09-26T02:21:32.277Z,991.40
2022-09-26T02:22:32.296Z,991.33
2022-09-26T02:23:32.238Z,991.30
2022-09-26T02:24:33.248Z,991.31
2022-09-26T02:25:32.246Z,991.32
2022-09-26T02:26:32.242Z,991.29
2022-09-26T02:27:32.227Z,991.29
2022-09-26T02:28:32.244Z,991.27
2022-09-26T02:29:32.211Z,991.26
2022-09-26T02:30:32.203Z,991.23
2022-09-26T02:31:32.300Z,991.15
2022-09-26T02:32:32.185Z,991.27
2022-09-26T02:33:32.198Z,991.16
2022-09-26T02:34:32.160Z,991.15
2022-09-26T02:35:32.163Z,991.13
2022-09-26T02:36:32.146Z,991.18
2022-09-26T02:37:32.131Z,991.14
2022-09-26T02:38:32.162Z,991.15
2022-09-26T02:39:32.126Z,991.08
2022-09-26T02:40:32.148Z,991.05
2022-09-26T02:41:32.110Z,991.08
2022-09-26T02:42:32.098Z,991.07
2022-09-26T02:43:32.112Z,991.10
2022-09-26T02:44:33.091Z,991.05
2022-09-26T02:45:32.114Z,991.04
2022-09-26T02:46:32.067Z,991.06
2022-09-26T02:47:32.054Z,991.05
2022-09-26T02:48:32.096Z,991.02
2022-09-26T02:49:32.034Z,991.00
2022-09-26T02:50:33.507Z,991.06
2022-09-26T02:51:33.025Z,990.99
2022-09-26T02:52:32.016Z,991.03
2022-09-26T02:53:32.040Z,991.06
2022-09-26T02:54:31.995Z,991.03
2022-09-26T02:55:31.997Z,991.02
2022-09-26T02:56:31.991Z,990.99
2022-09-26T02:57:31.988Z,990.99
2022-09-26T02:58:31.999Z,991.02
2022-09-26T02:59:31.964Z,990.98
2022-09-26T03:00:31.943Z,990.98
2022-09-26T03:01:32.032Z,990.95
2022-09-26T03:02:31.931Z,990.93
2022-09-26T03:03:32.026Z,990.94
2022-09-26T03:04:31.957Z,990.91
2022-09-26T03:05:31.906Z,990.91
2022-09-26T03:06:31.904Z,990.87
2022-09-26T03:07:31.894Z,990.97
2022-09-26T03:08:31.910Z,990.87
2022-09-26T03:09:31.871Z,990.84
2022-09-26T03:10:31.857Z,990.82
2022-09-26T03:11:31.854Z,990.75
2022-09-26T03:12:31.847Z,990.81
2022-09-26T03:13:31.875Z,990.79
2022-09-26T03:14:31.833Z,990.77
2022-09-26T03:15:31.819Z,990.77
2022-09-26T03:16:31.859Z,990.74
2022-09-26T03:17:31.810Z,990.79
2022-09-26T03:18:31.833Z,990.73
2022-09-26T03:19:31.790Z,990.70
2022-09-26T03:20:31.785Z,990.68
2022-09-26T03:21:36.168Z,990.70
2022-09-26T03:22:33.766Z,990.70
2022-09-26T03:23:31.794Z,990.66
2022-09-26T03:24:31.748Z,990.64
2022-09-26T03:25:31.745Z,990.66
2022-09-26T03:26:31.737Z,990.63
2022-09-26T03:27:31.723Z,990.66
2022-09-26T03:28:36.853Z,990.62
2022-09-26T03:29:33.703Z,990.59
2022-09-26T03:30:31.704Z,990.57
2022-09-26T03:31:31.758Z,990.60
2022-09-26T03:32:31.680Z,990.64
2022-09-26T03:33:31.705Z,990.61
2022-09-26T03:34:31.661Z,990.61
2022-09-26T03:35:31.646Z,990.59
2022-09-26T03:36:31.658Z,990.49
2022-09-26T03:37:31.635Z,990.54
2022-09-26T03:38:31.655Z,990.51
2022-09-26T03:39:32.624Z,990.50
2022-09-26T03:40:31.680Z,990.51
2022-09-26T03:41:31.611Z,990.55
2022-09-26T03:42:31.590Z,990.50
2022-09-26T03:43:31.631Z,990.50
2022-09-26T03:44:31.582Z,990.45
2022-09-26T03:45:31.626Z,990.50
2022-09-26T03:46:33.992Z,990.50
2022-09-26T03:47:32.553Z,990.52
2022-09-26T03:48:31.567Z,990.46
2022-09-26T03:49:31.541Z,990.49
2022-09-26T03:50:31.536Z,990.50
2022-09-26T03:51:31.514Z,990.50
2022-09-26T03:52:31.507Z,990.47
2022-09-26T03:53:31.539Z,990.42
2022-09-26T03:54:31.486Z,990.40
2022-09-26T03:55:31.478Z,990.38
2022-09-26T03:56:31.474Z,990.41
2022-09-26T03:57:31.465Z,990.43
2022-09-26T03:58:31.487Z,990.37
2022-09-26T03:59:31.452Z,990.36
2022-09-26T04:00:31.510Z,990.26
2022-09-26T04:01:31.505Z,990.26
2022-09-26T04:02:31.534Z,990.30
2022-09-26T04:03:31.419Z,990.34
2022-09-26T04:04:31.434Z,990.38
2022-09-26T04:05:31.398Z,990.24
2022-09-26T04:06:31.388Z,990.32
2022-09-26T04:07:31.390Z,990.24
2022-09-26T04:08:31.377Z,990.23
2022-09-26T04:09:31.396Z,990.18
2022-09-26T04:10:32.364Z,990.19
2022-09-26T04:11:31.351Z,990.20
2022-09-26T04:12:31.338Z,990.14
2022-09-26T04:13:50.607Z,990.07
2022-09-26T04:14:33.350Z,990.08
2022-09-26T04:15:31.306Z,990.15
2022-09-26T04:16:31.317Z,990.11
2022-09-26T04:17:32.295Z,990.10
2022-09-26T04:18:31.287Z,990.02
2022-09-26T04:19:31.308Z,990.00
2022-09-26T04:20:31.273Z,990.02
2022-09-26T04:21:31.267Z,990.02
2022-09-26T04:22:31.259Z,990.01
2022-09-26T04:23:31.257Z,989.98
2022-09-26T04:24:31.269Z,989.98
2022-09-26T04:25:31.234Z,989.98
2022-09-26T04:26:31.225Z,989.96
2022-09-26T04:27:31.222Z,990.00
2022-09-26T04:28:31.200Z,989.95
2022-09-26T04:29:31.224Z,989.97
2022-09-26T04:30:31.186Z,989.94
2022-09-26T04:31:31.201Z,989.93
2022-09-26T04:32:31.173Z,989.93
2022-09-26T04:33:31.168Z,989.91
2022-09-26T04:34:31.199Z,989.87
2022-09-26T04:35:31.157Z,989.90
2022-09-26T04:36:31.140Z,989.88
2022-09-26T04:37:31.129Z,989.86
2022-09-26T04:38:31.128Z,989.81
2022-09-26T04:39:31.145Z,989.88
2022-09-26T04:40:31.157Z,989.81
2022-09-26T04:41:31.110Z,989.85
2022-09-26T04:42:31.094Z,989.85
2022-09-26T04:43:31.086Z,989.82
2022-09-26T04:44:31.108Z,989.84
2022-09-26T04:45:31.098Z,989.81
2022-09-26T04:46:31.464Z,989.83
2022-09-26T04:47:31.043Z,989.80
2022-09-26T04:48:31.038Z,989.75
2022-09-26T04:49:31.057Z,989.77
2022-09-26T04:50:31.014Z,989.74
2022-09-26T04:51:31.026Z,989.76
2022-09-26T04:52:30.998Z,989.76
2022-09-26T04:53:30.992Z,989.77
2022-09-26T04:54:31.013Z,989.77
2022-09-26T04:55:30.979Z,989.72
2022-09-26T04:56:30.967Z,989.75
2022-09-26T04:57:30.962Z,989.69
2022-09-26T04:58:30.955Z,989.75
2022-09-26T04:59:30.975Z,989.73
2022-09-26T05:00:30.976Z,989.71
2022-09-26T05:01:31.000Z,989.75
2022-09-26T05:02:30.993Z,989.70
2022-09-26T05:03:30.918Z,989.65
2022-09-26T05:04:30.959Z,989.72
2022-09-26T05:05:30.891Z,989.66
2022-09-26T05:06:30.899Z,989.65
2022-09-26T05:07:30.881Z,989.68
2022-09-26T05:08:30.870Z,989.64
2022-09-26T05:09:35.759Z,989.61
2022-09-26T05:10:32.886Z,989.62
2022-09-26T05:11:30.847Z,989.65
2022-09-26T05:12:30.841Z,989.63
2022-09-26T05:13:30.833Z,989.62
2022-09-26T05:14:30.823Z,989.60
2022-09-26T05:15:30.849Z,989.64
2022-09-26T05:16:30.911Z,989.60
2022-09-26T05:17:30.801Z,989.58
2022-09-26T05:18:30.785Z,989.61
2022-09-26T05:19:30.781Z,989.61
2022-09-26T05:20:30.803Z,989.51
2022-09-26T05:21:30.770Z,989.60
2022-09-26T05:22:30.757Z,989.59
2022-09-26T05:23:30.746Z,989.61
2022-09-26T05:24:30.732Z,989.54
2022-09-26T05:25:30.755Z,989.51
2022-09-26T05:26:30.716Z,989.51
2022-09-26T05:27:30.713Z,989.59
2022-09-26T05:28:30.710Z,989.51
2022-09-26T05:29:30.693Z,989.49
2022-09-26T05:30:30.718Z,989.52
2022-09-26T05:31:30.744Z,989.43
2022-09-26T05:32:30.678Z,989.41
2022-09-26T05:33:30.664Z,989.43
2022-09-26T05:34:30.672Z,989.42
2022-09-26T05:35:30.687Z,989.45
2022-09-26T05:36:30.644Z,989.41
2022-09-26T05:37:30.638Z,989.47
2022-09-26T05:38:30.630Z,989.33
2022-09-26T05:39:30.613Z,989.39
2022-09-26T05:40:30.669Z,989.39
2022-09-26T05:41:30.601Z,989.42
2022-09-26T05:42:30.598Z,989.38
2022-09-26T05:43:30.578Z,989.47
2022-09-26T05:44:30.574Z,989.41
2022-09-26T05:45:30.599Z,989.41
2022-09-26T05:46:30.621Z,989.50
2022-09-26T05:47:30.551Z,989.33
2022-09-26T05:48:30.537Z,989.34
2022-09-26T05:49:30.609Z,989.30
2022-09-26T05:50:30.554Z,989.29
2022-09-26T05:51:30.536Z,989.32
2022-09-26T05:52:30.510Z,989.27
2022-09-26T05:53:30.505Z,989.30
2022-09-26T05:54:30.495Z,989.29
2022-09-26T05:55:30.506Z,989.28
2022-09-26T05:56:30.470Z,989.25
2022-09-26T05:57:30.466Z,989.21
2022-09-26T05:58:30.459Z,989.23
2022-09-26T05:59:30.446Z,989.24
2022-09-26T06:00:30.474Z,989.23
2022-09-26T06:01:30.553Z,989.17
2022-09-26T06:02:30.459Z,989.15
2022-09-26T06:03:30.421Z,989.15
2022-09-26T06:04:30.409Z,989.18
2022-09-26T06:05:30.427Z,989.17
2022-09-26T06:06:30.415Z,989.19
2022-09-26T06:07:30.377Z,989.14
2022-09-26T06:08:30.378Z,989.16
2022-09-26T06:09:30.379Z,989.18
2022-09-26T06:10:30.381Z,989.14
2022-09-26T06:11:30.354Z,989.14
2022-09-26T06:12:30.344Z,989.09
2022-09-26T06:13:30.334Z,989.06
2022-09-26T06:14:30.325Z,989.05
2022-09-26T06:15:30.350Z,989.09
2022-09-26T06:16:30.443Z,989.12
2022-09-26T06:17:30.306Z,989.09
2022-09-26T06:18:30.302Z,989.03
2022-09-26T06:19:30.285Z,989.08
2022-09-26T06:20:30.313Z,989.02
2022-09-26T06:21:30.289Z,988.95
2022-09-26T06:22:30.258Z,989.05
2022-09-26T06:23:30.252Z,988.94
2022-09-26T06:24:30.242Z,988.89
2022-09-26T06:25:30.266Z,988.90
2022-09-26T06:26:30.226Z,988.89
2022-09-26T06:27:30.222Z,988.89
2022-09-26T06:28:30.207Z,988.86
2022-09-26T06:29:30.208Z,988.94
2022-09-26T06:30:30.212Z,988.94
2022-09-26T06:31:30.338Z,988.82
2022-09-26T06:32:30.175Z,988.84
2022-09-26T06:33:33.364Z,988.82
2022-09-26T06:34:31.155Z,988.77
2022-09-26T06:35:30.154Z,988.83
2022-09-26T06:36:30.175Z,988.78
2022-09-26T06:37:30.130Z,988.78
2022-09-26T06:38:30.116Z,988.80
2022-09-26T06:39:30.115Z,988.74
2022-09-26T06:40:30.189Z,988.79
2022-09-26T06:41:30.130Z,988.72
2022-09-26T06:42:31.052Z,988.69
2022-09-26T06:43:30.084Z,988.77
2022-09-26T06:44:30.077Z,988.69
2022-09-26T06:45:30.069Z,988.65
2022-09-26T06:46:30.134Z,988.68
2022-09-26T06:47:30.113Z,988.64
2022-09-26T06:48:30.038Z,988.65
2022-09-26T06:49:30.029Z,988.66
2022-09-26T06:50:30.031Z,988.63
2022-09-26T06:51:30.043Z,988.62
2022-09-26T06:52:30.008Z,988.66
2022-09-26T06:53:30.004Z,988.59
2022-09-26T06:54:29.998Z,988.56
2022-09-26T06:55:29.980Z,988.52
2022-09-26T06:56:30.002Z,988.60
2022-09-26T06:57:29.966Z,988.57
2022-09-26T06:58:29.964Z,988.57
2022-09-26T06:59:29.946Z,988.54
2022-09-26T07:00:30.046Z,988.59
2022-09-26T07:01:30.066Z,988.62
2022-09-26T07:02:29.921Z,988.60
2022-09-26T07:03:30.022Z,988.53
2022-09-26T07:04:29.902Z,988.53
2022-09-26T07:05:29.904Z,988.55
2022-09-26T07:06:29.919Z,988.56
2022-09-26T07:07:29.878Z,988.56
2022-09-26T07:08:57.397Z,988.59
2022-09-26T07:09:31.854Z,988.54
2022-09-26T07:10:29.857Z,988.52
2022-09-26T07:11:50.373Z,988.50
2022-09-26T07:12:31.835Z,988.52
2022-09-26T07:13:29.831Z,988.52
2022-09-26T07:14:29.815Z,988.45
2022-09-26T07:15:29.808Z,988.52
2022-09-26T07:16:29.894Z,988.54
2022-09-26T07:17:29.787Z,988.47
2022-09-26T07:18:29.785Z,988.46
2022-09-26T07:19:29.767Z,988.44
2022-09-26T07:20:29.766Z,988.37
2022-09-26T07:21:29.789Z,988.33
2022-09-26T07:22:29.753Z,988.31
2022-09-26T07:23:29.739Z,988.45
2022-09-26T07:24:29.728Z,988.33
2022-09-26T07:25:29.720Z,988.36
2022-09-26T07:26:29.740Z,988.35
2022-09-26T07:27:29.702Z,988.33
2022-09-26T07:28:29.690Z,988.33
2022-09-26T07:29:29.683Z,988.26
2022-09-26T07:30:29.683Z,988.30
2022-09-26T07:31:29.807Z,988.28
2022-09-26T07:32:29.670Z,988.25
2022-09-26T07:33:29.660Z,988.31
2022-09-26T07:34:29.647Z,988.24
2022-09-26T07:35:29.644Z,988.18
2022-09-26T07:36:29.667Z,988.31
2022-09-26T07:37:29.621Z,988.13
2022-09-26T07:38:29.612Z,988.21
2022-09-26T07:39:29.607Z,988.09
2022-09-26T07:40:29.623Z,988.19
2022-09-26T07:41:29.592Z,988.19
2022-09-26T07:42:29.607Z,988.04
2022-09-26T07:44:00.186Z,988.11
2022-09-26T07:45:31.725Z,988.09
2022-09-26T07:46:29.650Z,988.14
2022-09-26T07:47:29.539Z,987.98
2022-09-26T07:48:29.531Z,988.06
2022-09-26T07:49:29.523Z,988.10
2022-09-26T07:50:29.509Z,988.09
2022-09-26T07:51:29.527Z,988.11
2022-09-26T07:52:29.488Z,988.01
2022-09-26T07:53:29.490Z,987.95
2022-09-26T07:54:29.478Z,988.18
2022-09-26T07:55:29.508Z,988.12
2022-09-26T07:56:29.489Z,988.03
2022-09-26T07:57:29.450Z,988.06
2022-09-26T07:58:29.440Z,988.09
2022-09-26T07:59:29.433Z,988.01
2022-09-26T08:00:29.421Z,988.03
2022-09-26T08:01:29.521Z,987.95
2022-09-26T08:02:29.470Z,987.98
2022-09-26T08:03:29.397Z,987.97
2022-09-26T08:04:29.391Z,988.00
2022-09-26T08:05:29.373Z,987.94
2022-09-26T08:06:29.402Z,987.91
2022-09-26T08:07:29.367Z,987.92
2022-09-26T08:08:29.360Z,988.01
2022-09-26T08:09:29.388Z,987.98
2022-09-26T08:10:29.346Z,987.89
2022-09-26T08:11:29.364Z,987.94
2022-09-26T08:12:29.328Z,987.76
2022-09-26T08:13:29.316Z,987.99
2022-09-26T08:14:29.306Z,987.85
2022-09-26T08:15:29.294Z,987.77
2022-09-26T08:16:29.403Z,987.63
2022-09-26T08:17:29.288Z,987.67
2022-09-26T08:18:29.275Z,987.68
2022-09-26T08:19:29.288Z,987.58
2022-09-26T08:20:32.228Z,987.57
2022-09-26T08:21:30.276Z,987.46
2022-09-26T08:22:29.243Z,987.53
2022-09-26T08:23:29.240Z,987.44
2022-09-26T08:24:29.232Z,987.47
2022-09-26T08:25:29.221Z,987.43
2022-09-26T08:26:29.240Z,987.46
2022-09-26T08:27:29.212Z,987.42
2022-09-26T08:28:29.183Z,987.45
2022-09-26T08:29:30.191Z,987.41
2022-09-26T08:30:29.179Z,987.38
2022-09-26T08:31:29.225Z,987.36
2022-09-26T08:32:29.191Z,987.32
2022-09-26T08:33:29.154Z,987.38
2022-09-26T08:34:29.151Z,987.41
2022-09-26T08:35:29.140Z,987.39
2022-09-26T08:36:29.128Z,987.42
2022-09-26T08:37:29.143Z,987.39
2022-09-26T08:38:30.123Z,987.31
2022-09-26T08:39:33.305Z,987.34
2022-09-26T08:40:30.171Z,987.33
2022-09-26T08:41:29.126Z,987.32
2022-09-26T08:42:29.079Z,987.31
2022-09-26T08:43:29.106Z,987.21
2022-09-26T08:44:29.067Z,987.37
2022-09-26T08:45:29.070Z,987.06
2022-09-26T08:46:29.129Z,987.10
2022-09-26T08:47:29.046Z,987.15
2022-09-26T08:48:29.031Z,987.18
2022-09-26T08:49:29.036Z,987.15
2022-09-26T08:50:29.011Z,987.17
2022-09-26T08:51:29.491Z,987.24
2022-09-26T08:52:30.002Z,987.05
2022-09-26T08:53:28.992Z,987.20
2022-09-26T08:54:28.983Z,986.93
2022-09-26T08:55:28.977Z,987.06
2022-09-26T08:56:29.007Z,986.99
2022-09-26T08:57:28.955Z,987.09
2022-09-26T08:58:29.372Z,987.09
2022-09-26T08:59:29.945Z,986.93
2022-09-26T09:00:28.936Z,987.01
2022-09-26T09:01:28.977Z,987.12
2022-09-26T09:02:29.087Z,986.79
2022-09-26T09:03:28.903Z,986.84
2022-09-26T09:04:28.903Z,986.84
2022-09-26T09:05:28.890Z,986.90
2022-09-26T09:06:28.885Z,986.85
2022-09-26T09:07:28.893Z,986.91
2022-09-26T09:08:28.881Z,986.85
2022-09-26T09:09:28.859Z,986.88
2022-09-26T09:10:28.853Z,986.81
2022-09-26T09:11:28.844Z,986.82
2022-09-26T09:12:32.142Z,986.82
2022-09-26T09:13:29.826Z,986.87
2022-09-26T09:14:28.812Z,986.88
2022-09-26T09:15:28.812Z,986.90
2022-09-26T09:16:28.847Z,986.83
2022-09-26T09:17:28.817Z,986.92
2022-09-26T09:18:28.773Z,986.78
2022-09-26T09:19:28.780Z,986.86
2022-09-26T09:20:28.758Z,986.78
2022-09-26T09:21:28.752Z,986.94
2022-09-26T09:22:28.782Z,986.86
2022-09-26T09:23:28.745Z,986.82
2022-09-26T09:24:28.748Z,986.67
2022-09-26T09:25:28.724Z,986.69
2022-09-26T09:28:30.698Z,986.73
2022-09-26T09:29:28.722Z,986.68
2022-09-26T09:30:28.693Z,986.67
2022-09-26T09:31:28.744Z,986.59
2022-09-26T09:32:28.691Z,986.54
2022-09-26T09:33:28.652Z,986.64
2022-09-26T09:34:28.644Z,986.57
2022-09-26T09:35:28.634Z,986.65
2022-09-26T09:36:28.625Z,986.56
2022-09-26T09:37:28.644Z,986.56
2022-09-26T09:38:28.615Z,986.52
2022-09-26T09:39:28.596Z,986.67
2022-09-26T09:40:28.661Z,986.43
2022-09-26T09:41:28.592Z,986.56
2022-09-26T09:42:28.606Z,986.49
2022-09-26T09:43:28.566Z,986.65
2022-09-26T09:44:28.558Z,986.51
2022-09-26T09:45:28.551Z,986.55
2022-09-26T09:46:28.703Z,986.31
2022-09-26T09:47:28.527Z,986.38
2022-09-26T09:48:28.528Z,986.41
2022-09-26T09:49:28.517Z,986.46
2022-09-26T09:50:28.512Z,986.38
2022-09-26T09:51:28.528Z,986.44
2022-09-26T09:52:28.533Z,986.30
2022-09-26T09:53:28.480Z,986.49
2022-09-26T09:54:28.471Z,986.41
2022-09-26T09:55:28.469Z,986.32
2022-09-26T09:56:28.485Z,986.33
2022-09-26T09:57:28.452Z,986.32
2022-09-26T09:58:28.441Z,986.25
2022-09-26T09:59:28.430Z,986.30
2022-09-26T10:00:28.423Z,986.30
2022-09-26T10:01:28.442Z,986.20
2022-09-26T10:02:28.464Z,986.23
2022-09-26T10:03:28.390Z,986.19
2022-09-26T10:04:28.391Z,986.31
2022-09-26T10:05:28.388Z,986.19
2022-09-26T10:06:45.747Z,986.24
2022-09-26T10:07:29.358Z,986.05
2022-09-26T10:08:28.354Z,985.99
2022-09-26T10:09:38.891Z,986.09
2022-09-26T10:10:29.332Z,986.09
2022-09-26T10:11:28.352Z,986.05
2022-09-26T10:12:28.323Z,986.07
2022-09-26T10:13:28.313Z,986.10
2022-09-26T10:14:28.312Z,986.05
2022-09-26T10:15:28.298Z,986.02
2022-09-26T10:16:28.440Z,985.93
2022-09-26T10:17:28.281Z,985.95
2022-09-26T10:18:28.278Z,986.01
2022-09-26T10:19:28.262Z,985.98
2022-09-26T10:20:28.257Z,985.96
2022-09-26T10:21:28.277Z,985.92
2022-09-26T10:22:28.242Z,985.98
2022-09-26T10:23:28.234Z,985.95
2022-09-26T10:24:28.232Z,985.95
2022-09-26T10:25:29.218Z,985.85
2022-09-26T10:26:31.450Z,985.80
2022-09-26T10:27:29.197Z,985.82
2022-09-26T10:28:28.187Z,985.88
2022-09-26T10:29:28.181Z,985.91
2022-09-26T10:30:28.179Z,985.78
2022-09-26T10:31:43.502Z,985.84
2022-09-26T10:32:28.152Z,985.85
2022-09-26T10:33:28.150Z,985.88
2022-09-26T10:34:28.225Z,986.02
2022-09-26T10:35:28.129Z,985.99
2022-09-26T10:36:28.153Z,985.94
2022-09-26T10:37:28.114Z,985.79
2022-09-26T10:38:28.100Z,985.79
2022-09-26T10:39:28.097Z,985.79
2022-09-26T10:40:28.142Z,985.85
2022-09-26T10:41:28.105Z,985.91
2022-09-26T10:42:32.304Z,985.84
2022-09-26T10:43:29.062Z,985.81
2022-09-26T10:44:28.058Z,985.76
2022-09-26T10:45:28.052Z,985.81
2022-09-26T10:46:28.108Z,985.84
2022-09-26T10:47:28.033Z,985.73
2022-09-26T10:48:28.016Z,985.84
2022-09-26T10:49:29.032Z,985.76
2022-09-26T10:50:28.006Z,985.78
2022-09-26T10:51:28.024Z,985.70
2022-09-26T10:52:27.995Z,985.74
2022-09-26T10:53:27.987Z,985.77
2022-09-26T10:54:27.966Z,985.67
2022-09-26T10:55:27.965Z,985.68
2022-09-26T10:56:27.961Z,985.70
2022-09-26T10:57:27.974Z,985.65
2022-09-26T10:58:27.938Z,985.72
2022-09-26T10:59:28.805Z,985.75
2022-09-26T11:00:27.933Z,985.69
2022-09-26T11:01:28.032Z,985.76
2022-09-26T11:02:27.908Z,985.66
2022-09-26T11:03:27.957Z,985.63
2022-09-26T11:04:27.891Z,985.57
2022-09-26T11:05:27.894Z,985.56
2022-09-26T11:06:27.903Z,985.54
2022-09-26T11:07:27.872Z,985.45
2022-09-26T11:08:27.859Z,985.45
2022-09-26T11:09:27.849Z,985.37
2022-09-26T11:10:27.845Z,985.47
2022-09-26T11:11:27.866Z,985.38
2022-09-26T11:12:27.841Z,985.33
2022-09-26T11:13:27.815Z,985.41
2022-09-26T11:14:28.551Z,985.39
2022-09-26T11:15:28.885Z,985.37
2022-09-26T11:16:27.849Z,985.30
2022-09-26T11:17:27.788Z,985.45
2022-09-26T11:18:27.777Z,985.33
2022-09-26T11:19:27.774Z,985.38
2022-09-26T11:20:27.762Z,985.48
2022-09-26T11:21:29.691Z,985.33
2022-09-26T11:22:28.742Z,985.28
2022-09-26T11:23:27.733Z,985.31
2022-09-26T11:24:27.732Z,985.25
2022-09-26T11:25:27.718Z,985.34
2022-09-26T11:26:27.742Z,985.25
2022-09-26T11:27:27.700Z,985.21
2022-09-26T11:28:27.707Z,985.14
2022-09-26T11:29:27.703Z,985.21
2022-09-26T11:30:27.681Z,985.29
2022-09-26T11:31:27.818Z,985.30
2022-09-26T11:32:27.696Z,985.27
2022-09-26T11:33:27.657Z,985.19
2022-09-26T11:34:27.652Z,985.20
2022-09-26T11:35:27.640Z,985.10
2022-09-26T11:36:27.638Z,985.15
2022-09-26T11:37:27.653Z,985.11
2022-09-26T11:38:27.621Z,985.00
2022-09-26T11:39:27.612Z,984.99
2022-09-26T11:40:27.690Z,985.04
2022-09-26T11:41:27.595Z,985.08
2022-09-26T11:42:27.616Z,984.98
2022-09-26T11:43:27.588Z,984.98
2022-09-26T11:44:27.565Z,984.87
2022-09-26T11:45:27.562Z,985.01
2022-09-26T11:46:27.643Z,984.90
2022-09-26T11:47:27.569Z,984.80
2022-09-26T11:48:27.542Z,984.85
2022-09-26T11:49:27.530Z,984.93
2022-09-26T11:50:27.565Z,984.76
2022-09-26T11:51:27.509Z,984.85
2022-09-26T11:52:27.525Z,984.79
2022-09-26T11:53:27.498Z,984.76
2022-09-26T11:54:27.493Z,984.70
2022-09-26T11:55:27.477Z,984.71
2022-09-26T11:56:27.469Z,984.75
2022-09-26T11:57:27.487Z,984.81
2022-09-26T11:58:27.457Z,984.70
2022-09-26T11:59:27.448Z,984.70
2022-09-26T12:00:27.501Z,984.74
2022-09-26T12:01:27.435Z,984.64
2022-09-26T12:02:27.509Z,984.59
2022-09-26T12:03:27.575Z,984.65
2022-09-26T12:06:24.418Z,984.66
2022-09-26T12:07:24.467Z,984.59
2022-09-26T12:08:24.428Z,984.55
2022-09-26T12:09:24.421Z,984.47
2022-09-26T12:10:24.415Z,984.55
2022-09-26T12:11:24.404Z,984.61
2022-09-26T12:12:24.423Z,984.60
2022-09-26T12:13:24.388Z,984.45
2022-09-26T12:14:25.526Z,984.41
2022-09-26T12:15:25.513Z,984.43
2022-09-26T12:16:25.596Z,984.45
2022-09-26T12:17:25.536Z,984.60
2022-09-26T12:18:25.490Z,984.43
2022-09-26T12:19:25.489Z,984.60
2022-09-26T12:20:25.484Z,984.46
2022-09-26T12:21:25.466Z,984.48
2022-09-26T12:22:25.493Z,984.51
2022-09-26T12:23:25.482Z,984.51
2022-09-26T12:24:25.449Z,984.48
2022-09-26T12:25:25.435Z,984.39
2022-09-26T12:26:25.433Z,984.47
2022-09-26T12:27:25.418Z,984.45
2022-09-26T12:28:26.443Z,984.40
2022-09-26T12:29:25.410Z,984.46
2022-09-26T12:30:25.404Z,984.39
2022-09-26T12:31:25.449Z,984.50
2022-09-26T12:32:25.380Z,984.33
2022-09-26T12:33:25.402Z,984.40